Time;durP1;ratioP1;P1;durP2;ratioP2;P2;SDS_P1;SDS_P2;PMS_P1;PMS_P2;Temp;Humidity;BMP_temperature;BMP_pressure;BME280_temperature;BME280_humidity;BME280_pressure;Samples;Min_cycle;Max_cycle;Signal;HPM_P1;HPM_P2
2021/09/01 00:01:14;;;;;;;12.40;3.00;;;19.30;86.90;;;;;;5025039;28;20037;-85
2021/09/01 00:03:40;;;;;;;9.45;3.70;;;19.30;86.90;;;;;;5055849;28;20027;-85
2021/09/01 00:06:05;;;;;;;10.27;3.28;;;19.20;86.60;;;;;;5025114;28;20059;-86
2021/09/01 00:08:32;;;;;;;9.52;3.22;;;19.20;86.50;;;;;;5036087;28;20028;-85
2021/09/01 00:10:58;;;;;;;9.98;3.85;;;19.20;86.70;;;;;;5035866;28;20032;-85
2021/09/01 00:13:24;;;;;;;9.55;3.22;;;19.20;86.50;;;;;;5052077;28;20029;-86
2021/09/01 00:15:50;;;;;;;9.20;3.05;;;19.20;86.70;;;;;;5018845;28;20044;-85
2021/09/01 00:18:15;;;;;;;9.07;3.25;;;19.20;86.70;;;;;;5018909;28;20032;-86
2021/09/01 00:20:41;;;;;;;9.90;3.67;;;19.20;86.80;;;;;;5018887;28;20067;-85
2021/09/01 00:23:07;;;;;;;9.95;3.25;;;19.10;86.90;;;;;;5035168;28;20032;-85
2021/09/01 00:25:32;;;;;;;10.40;3.08;;;19.10;87.00;;;;;;5019917;28;20036;-86
2021/09/01 00:27:59;;;;;;;8.75;2.63;;;19.10;87.00;;;;;;5018655;28;20403;-86
2021/09/01 00:30:25;;;;;;;10.55;3.35;;;19.10;86.80;;;;;;5018378;28;20021;-86
2021/09/01 00:32:51;;;;;;;10.68;3.15;;;19.10;87.00;;;;;;5018292;28;20032;-85
2021/09/01 00:35:16;;;;;;;10.60;3.80;;;19.10;86.90;;;;;;4999081;28;20026;-85
2021/09/01 00:37:42;;;;;;;9.30;3.28;;;19.10;86.80;;;;;;5009754;28;20060;-86
2021/09/01 00:40:08;;;;;;;10.38;3.50;;;19.10;87.00;;;;;;5051858;28;20045;-85
2021/09/01 00:42:36;;;;;;;10.55;3.53;;;19.10;87.00;;;;;;5002587;28;20040;-86
2021/09/01 00:45:04;;;;;;;10.07;3.30;;;19.00;87.00;;;;;;5053309;28;20087;-85
2021/09/01 00:47:30;;;;;;;11.70;3.33;;;19.00;86.90;;;;;;5035387;28;20480;-87
2021/09/01 00:49:55;;;;;;;11.85;3.72;;;19.00;86.80;;;;;;5053106;28;20036;-85
2021/09/01 00:52:22;;;;;;;9.57;3.17;;;19.00;87.00;;;;;;5036042;28;20071;-85
2021/09/01 00:54:48;;;;;;;8.10;3.35;;;19.00;86.90;;;;;;5035703;28;20025;-85
2021/09/01 00:57:16;;;;;;;10.00;3.05;;;18.90;87.00;;;;;;5036027;28;20025;-85
2021/09/01 00:59:43;;;;;;;8.73;2.97;;;18.90;86.70;;;;;;5037061;28;20032;-85
2021/09/01 01:02:09;;;;;;;11.50;3.65;;;18.90;86.50;;;;;;5020020;28;20040;-86
2021/09/01 01:04:35;;;;;;;11.60;3.35;;;18.90;86.70;;;;;;5055868;28;20017;-85
2021/09/01 01:07:09;;;;;;;11.38;3.65;;;18.90;86.70;;;;;;5060813;28;20021;-89
2021/09/01 01:09:36;;;;;;;9.35;3.20;;;18.80;86.70;;;;;;5080685;28;20076;-85
2021/09/01 01:12:13;;;;;;;10.18;2.90;;;18.80;86.80;;;;;;5075487;28;20028;-92
2021/09/01 01:14:44;;;;;;;11.25;3.30;;;18.90;86.90;;;;;;5076451;28;20072;-89
2021/09/01 01:17:12;;;;;;;7.78;2.70;;;18.90;87.80;;;;;;5077195;28;20016;-94
2021/09/01 01:19:43;;;;;;;8.57;2.88;;;18.90;87.20;;;;;;5073083;28;20057;-86
2021/09/01 01:22:15;;;;;;;13.40;3.47;;;18.80;87.30;;;;;;5046247;28;20745;-84
2021/09/01 01:24:59;;;;;;;7.72;3.10;;;18.80;87.50;;;;;;5041443;28;20025;-84
2021/09/01 01:27:36;;;;;;;8.48;3.33;;;18.80;87.50;;;;;;5048219;28;20100;-86
2021/09/01 01:30:15;;;;;;;8.55;3.17;;;18.80;87.60;;;;;;5055367;28;20029;-86
2021/09/01 01:32:44;;;;;;;7.80;3.00;;;18.80;87.80;;;;;;5044176;28;20527;-86
2021/09/01 01:35:11;;;;;;;6.63;2.75;;;18.80;87.80;;;;;;5058606;28;20029;-86
2021/09/01 01:37:39;;;;;;;7.60;2.78;;;18.80;87.80;;;;;;5043672;28;20511;-85
2021/09/01 01:40:05;;;;;;;10.02;3.42;;;18.70;87.80;;;;;;5058576;28;20473;-87
2021/09/01 01:42:38;;;;;;;9.07;2.95;;;18.70;87.90;;;;;;5061653;28;20499;-85
2021/09/01 01:45:05;;;;;;;7.57;2.92;;;18.70;87.80;;;;;;5024848;28;20491;-85
2021/09/01 01:47:30;;;;;;;9.57;3.22;;;18.70;88.40;;;;;;5038283;28;20082;-85
2021/09/01 01:49:56;;;;;;;12.02;3.58;;;18.70;87.90;;;;;;5038102;28;20040;-86
2021/09/01 01:52:21;;;;;;;7.72;2.72;;;18.70;87.80;;;;;;5054384;28;20032;-85
2021/09/01 01:54:47;;;;;;;9.95;3.15;;;18.70;88.00;;;;;;5070401;28;20031;-86
2021/09/01 01:57:14;;;;;;;9.18;3.17;;;18.70;88.00;;;;;;5041368;28;20029;-85
2021/09/01 01:59:39;;;;;;;10.93;3.58;;;18.70;88.10;;;;;;5027611;28;20033;-88
2021/09/01 02:02:05;;;;;;;10.75;3.25;;;18.60;88.70;;;;;;5041513;28;20542;-85
2021/09/01 02:04:31;;;;;;;9.63;3.38;;;18.60;88.10;;;;;;5074458;28;20029;-86
2021/09/01 02:06:56;;;;;;;10.05;3.05;;;18.60;88.20;;;;;;5070778;28;20056;-85
2021/09/01 02:09:22;;;;;;;12.23;3.70;;;18.60;88.40;;;;;;5038127;28;20056;-86
2021/09/01 02:11:48;;;;;;;9.02;3.40;;;18.60;88.30;;;;;;5036016;28;20111;-86
2021/09/01 02:14:13;;;;;;;8.82;3.53;;;18.60;88.40;;;;;;5021322;28;20025;-85
2021/09/01 02:16:39;;;;;;;8.93;3.05;;;18.60;88.40;;;;;;5032039;28;20017;-85
2021/09/01 02:19:05;;;;;;;7.53;3.00;;;18.60;88.50;;;;;;5037901;28;20470;-86
2021/09/01 02:21:31;;;;;;;8.60;3.00;;;18.60;88.50;;;;;;5053293;28;20079;-87
2021/09/01 02:23:56;;;;;;;8.30;2.88;;;18.60;88.70;;;;;;5037475;28;20033;-85
2021/09/01 02:26:22;;;;;;;10.45;3.35;;;18.50;88.80;;;;;;5004671;28;20100;-86
2021/09/01 02:28:47;;;;;;;6.15;2.65;;;18.50;88.80;;;;;;5020718;28;20124;-85
2021/09/01 02:31:13;;;;;;;10.13;3.63;;;18.50;88.90;;;;;;5021038;28;20029;-85
2021/09/01 02:33:39;;;;;;;10.15;3.50;;;18.50;88.80;;;;;;5054583;28;20037;-86
2021/09/01 02:36:06;;;;;;;11.55;2.95;;;18.50;89.00;;;;;;5036732;28;20017;-85
2021/09/01 02:38:32;;;;;;;9.50;3.35;;;18.50;89.00;;;;;;5036312;28;20041;-90
2021/09/01 02:40:57;;;;;;;8.82;3.50;;;18.50;88.90;;;;;;5004309;28;20405;-84
2021/09/01 02:43:23;;;;;;;8.65;3.13;;;18.50;88.80;;;;;;5033214;28;20134;-85
2021/09/01 02:45:49;;;;;;;8.73;3.20;;;18.50;89.00;;;;;;5018519;28;20164;-85
2021/09/01 02:48:15;;;;;;;12.82;3.42;;;18.50;89.10;;;;;;5033985;28;20064;-86
2021/09/01 02:50:41;;;;;;;11.60;3.15;;;18.50;89.00;;;;;;5046302;28;20036;-86
2021/09/01 02:53:07;;;;;;;7.80;3.40;;;18.50;89.00;;;;;;5020676;28;20021;-85
2021/09/01 02:55:32;;;;;;;7.63;3.47;;;18.40;88.90;;;;;;5045472;28;20020;-85
2021/09/01 02:57:58;;;;;;;11.63;3.28;;;18.40;89.00;;;;;;5055392;28;20423;-86
2021/09/01 03:00:24;;;;;;;9.95;3.20;;;18.40;89.10;;;;;;5003513;28;20025;-86
2021/09/01 03:02:49;;;;;;;11.32;3.33;;;18.40;89.30;;;;;;5061808;28;20040;-85
2021/09/01 03:05:15;;;;;;;9.73;3.38;;;18.40;89.40;;;;;;5005560;28;20025;-86
2021/09/01 03:07:41;;;;;;;10.38;3.55;;;18.40;89.30;;;;;;5049291;28;20976;-86
2021/09/01 03:10:07;;;;;;;10.82;3.63;;;18.40;89.30;;;;;;5020158;28;20041;-85
2021/09/01 03:12:32;;;;;;;9.20;3.45;;;18.40;89.30;;;;;;5020081;28;20028;-86
2021/09/01 03:14:58;;;;;;;8.82;3.33;;;18.40;89.30;;;;;;5020453;28;20033;-86
2021/09/01 03:17:24;;;;;;;7.63;3.17;;;18.40;89.30;;;;;;5003475;28;20132;-86
2021/09/01 03:19:49;;;;;;;10.38;3.88;;;18.30;89.20;;;;;;5034857;28;20753;-86
2021/09/01 03:22:15;;;;;;;11.05;3.50;;;18.30;89.30;;;;;;5052084;28;20366;-86
2021/09/01 03:24:40;;;;;;;6.97;3.22;;;18.30;89.40;;;;;;5034726;28;20063;-88
2021/09/01 03:27:06;;;;;;;8.10;3.40;;;18.30;89.50;;;;;;5018481;28;20143;-85
2021/09/01 03:29:32;;;;;;;8.95;3.25;;;18.30;89.40;;;;;;5051076;28;20151;-87
2021/09/01 03:31:57;;;;;;;10.05;3.75;;;18.30;89.30;;;;;;5052777;28;20086;-87
2021/09/01 03:34:23;;;;;;;12.93;4.18;;;18.30;89.50;;;;;;5053090;28;20056;-88
2021/09/01 03:36:49;;;;;;;10.43;4.00;;;18.30;89.40;;;;;;5015252;28;20508;-86
2021/09/01 03:39:15;;;;;;;10.15;4.00;;;18.30;89.50;;;;;;5052404;28;20032;-85
2021/09/01 03:41:40;;;;;;;11.98;3.95;;;18.30;89.50;;;;;;5034670;28;20488;-86
2021/09/01 03:44:06;;;;;;;9.50;3.63;;;18.20;89.70;;;;;;5034992;28;20469;-86
2021/09/01 03:46:32;;;;;;;10.65;3.78;;;18.20;89.80;;;;;;5034969;28;20120;-86
2021/09/01 03:48:57;;;;;;;8.50;3.40;;;18.20;89.60;;;;;;5034652;28;20029;-85
2021/09/01 03:51:23;;;;;;;9.70;3.72;;;18.20;89.50;;;;;;5035254;28;20111;-85
2021/09/01 03:53:49;;;;;;;10.05;3.80;;;18.20;89.50;;;;;;5017916;28;20032;-86
2021/09/01 03:56:14;;;;;;;8.55;3.83;;;18.20;89.50;;;;;;5020043;28;20028;-86
2021/09/01 03:58:40;;;;;;;11.63;3.83;;;18.20;89.60;;;;;;5036510;28;20465;-86
2021/09/01 04:01:05;;;;;;;9.15;3.67;;;18.20;89.80;;;;;;5036299;28;20041;-86
2021/09/01 04:03:31;;;;;;;10.43;3.50;;;18.20;89.80;;;;;;5026994;28;20036;-86
2021/09/01 04:05:57;;;;;;;9.43;3.83;;;18.20;89.70;;;;;;5017200;28;20033;-86
2021/09/01 04:08:22;;;;;;;9.90;3.55;;;18.20;89.60;;;;;;5054561;28;20029;-85
2021/09/01 04:10:48;;;;;;;7.90;3.40;;;18.10;89.60;;;;;;5036601;28;20040;-85
2021/09/01 04:13:14;;;;;;;9.90;3.22;;;18.10;89.60;;;;;;5006591;28;20029;-85
2021/09/01 04:15:39;;;;;;;12.73;4.30;;;18.10;89.60;;;;;;5035107;28;20603;-86
2021/09/01 04:18:05;;;;;;;11.32;3.65;;;18.10;89.60;;;;;;5032337;28;20025;-85
2021/09/01 04:20:31;;;;;;;9.82;3.28;;;18.10;89.50;;;;;;5047877;28;20028;-86
2021/09/01 04:22:56;;;;;;;7.05;2.85;;;18.10;89.30;;;;;;5056391;28;20393;-85
2021/09/01 04:25:23;;;;;;;6.75;3.10;;;18.10;88.90;;;;;;5050802;28;20369;-84
2021/09/01 04:27:48;;;;;;;7.72;2.70;;;18.00;88.80;;;;;;5039363;28;20039;-89
2021/09/01 04:30:14;;;;;;;10.23;3.33;;;18.10;88.80;;;;;;5028736;28;20116;-85
2021/09/01 04:32:40;;;;;;;9.40;3.08;;;18.10;88.90;;;;;;5037149;28;20017;-86
2021/09/01 04:35:06;;;;;;;9.27;3.10;;;18.10;89.00;;;;;;5027768;28;20025;-86
2021/09/01 04:37:32;;;;;;;9.80;2.92;;;18.10;88.90;;;;;;5042182;28;20044;-85
2021/09/01 04:39:57;;;;;;;9.52;2.95;;;18.00;88.80;;;;;;5056258;28;20029;-86
2021/09/01 04:42:23;;;;;;;11.75;3.33;;;18.00;88.90;;;;;;5048383;28;20029;-87
2021/09/01 04:44:48;;;;;;;9.43;3.05;;;18.00;88.90;;;;;;5073644;28;20033;-86
2021/09/01 04:47:14;;;;;;;8.98;3.05;;;18.00;88.90;;;;;;5073717;28;20531;-91
2021/09/01 04:49:40;;;;;;;9.38;3.20;;;18.00;89.00;;;;;;5069386;28;20033;-93
2021/09/01 04:52:05;;;;;;;8.43;3.92;;;18.00;89.20;;;;;;5062312;28;20036;-95
2021/09/01 04:54:32;;;;;;;7.35;2.95;;;18.00;89.20;;;;;;5075275;28;20016;-94
2021/09/01 04:56:58;;;;;;;9.82;3.30;;;18.00;89.30;;;;;;5065797;28;20013;-90
2021/09/01 04:59:23;;;;;;;8.88;3.28;;;18.00;89.30;;;;;;5069093;28;20050;-89
2021/09/01 05:01:49;;;;;;;10.30;3.83;;;17.90;89.40;;;;;;5066968;28;20036;-87
2021/09/01 05:04:14;;;;;;;8.85;3.22;;;17.90;89.30;;;;;;5034877;28;20034;-86
2021/09/01 05:06:40;;;;;;;8.57;3.20;;;17.90;89.30;;;;;;5035141;28;20025;-87
2021/09/01 05:09:06;;;;;;;10.02;3.38;;;17.90;89.30;;;;;;5056227;28;20060;-87
2021/09/01 05:11:31;;;;;;;7.15;3.00;;;17.90;89.40;;;;;;5037275;28;20014;-87
2021/09/01 05:13:57;;;;;;;13.05;3.67;;;17.90;89.50;;;;;;5038780;28;20051;-84
2021/09/01 05:16:23;;;;;;;8.82;3.10;;;17.90;89.50;;;;;;5055781;28;20029;-87
2021/09/01 05:18:48;;;;;;;11.52;3.47;;;17.90;89.70;;;;;;5038755;28;20029;-86
2021/09/01 05:21:17;;;;;;;9.43;3.38;;;17.90;89.80;;;;;;5057876;28;20105;-88
2021/09/01 05:23:45;;;;;;;7.57;3.00;;;17.90;89.70;;;;;;5075661;28;20028;-86
2021/09/01 05:26:17;;;;;;;8.98;3.00;;;17.90;89.70;;;;;;5045355;28;20084;-86
2021/09/01 05:28:43;;;;;;;7.18;2.72;;;17.90;89.60;;;;;;5073171;28;20031;-87
2021/09/01 05:31:09;;;;;;;8.27;3.20;;;17.90;89.70;;;;;;5039413;28;20075;-87
2021/09/01 05:33:37;;;;;;;8.32;2.95;;;17.90;89.80;;;;;;5023623;28;20029;-88
2021/09/01 05:36:05;;;;;;;9.98;3.35;;;17.90;89.90;;;;;;5056340;28;20033;-87
2021/09/01 05:38:35;;;;;;;10.88;3.53;;;17.90;90.00;;;;;;5039305;28;20110;-86
2021/09/01 05:41:02;;;;;;;9.32;4.05;;;17.80;90.00;;;;;;5056222;28;20037;-85
2021/09/01 05:43:28;;;;;;;11.35;3.65;;;17.80;90.00;;;;;;5041360;28;20488;-86
2021/09/01 05:45:54;;;;;;;9.40;3.00;;;17.80;90.00;;;;;;5025123;28;20388;-86
2021/09/01 05:48:21;;;;;;;8.52;3.13;;;17.80;90.00;;;;;;5041104;28;20025;-86
2021/09/01 05:50:55;;;;;;;7.32;3.00;;;17.80;90.40;;;;;;5070756;28;20033;-85
2021/09/01 05:53:22;;;;;;;9.18;3.08;;;17.80;90.20;;;;;;5059681;28;20120;-86
2021/09/01 05:55:52;;;;;;;8.93;3.10;;;17.80;90.10;;;;;;5057970;28;20005;-89
2021/09/01 05:58:20;;;;;;;8.18;2.97;;;17.80;90.20;;;;;;5058324;28;20033;-87
2021/09/01 06:00:55;;;;;;;7.63;2.78;;;17.80;90.20;;;;;;5042541;28;20036;-86
2021/09/01 06:03:28;;;;;;;6.65;2.55;;;17.80;90.20;;;;;;5072782;28;20021;-86
2021/09/01 06:05:56;;;;;;;7.30;3.20;;;17.80;90.20;;;;;;5066683;28;20032;-86
2021/09/01 06:08:32;;;;;;;9.98;2.70;;;17.80;90.30;;;;;;5062208;28;20009;-88
2021/09/01 06:10:59;;;;;;;7.45;2.80;;;17.80;90.30;;;;;;5065985;28;20068;-86
2021/09/01 06:13:25;;;;;;;9.57;3.08;;;17.80;90.30;;;;;;5056812;28;20024;-87
2021/09/01 06:15:51;;;;;;;8.60;3.22;;;17.80;90.20;;;;;;5053372;28;20021;-87
2021/09/01 06:18:16;;;;;;;8.18;3.08;;;17.80;90.30;;;;;;5042510;28;20021;-86
2021/09/01 06:20:42;;;;;;;7.35;2.67;;;17.80;90.30;;;;;;5057744;28;21398;-87
2021/09/01 06:23:08;;;;;;;7.00;2.67;;;17.80;90.20;;;;;;5040303;28;20090;-86
2021/09/01 06:25:34;;;;;;;8.73;2.80;;;17.80;90.30;;;;;;5040126;28;20028;-86
2021/09/01 06:28:00;;;;;;;7.75;2.72;;;17.80;90.30;;;;;;5056731;28;20036;-87
2021/09/01 06:30:26;;;;;;;8.93;2.65;;;17.80;90.30;;;;;;5039267;28;20026;-93
2021/09/01 06:32:52;;;;;;;8.13;2.85;;;17.80;90.30;;;;;;5023925;28;20029;-93
2021/09/01 06:35:18;;;;;;;6.82;2.90;;;17.90;90.30;;;;;;5049994;28;20446;-94
2021/09/01 06:37:45;;;;;;;7.72;3.03;;;17.80;90.20;;;;;;5059461;28;20025;-94
2021/09/01 06:40:17;;;;;;;10.15;3.00;;;17.80;90.30;;;;;;5053235;28;20018;-93
2021/09/01 06:42:45;;;;;;;10.07;3.22;;;17.80;90.30;;;;;;5069664;28;20005;-95
2021/09/01 06:45:12;;;;;;;7.78;3.10;;;17.80;90.30;;;;;;5061676;28;20013;-94
2021/09/01 06:47:43;;;;;;;8.20;2.70;;;17.90;90.60;;;;;;5066179;28;20008;-96
2021/09/01 06:50:11;;;;;;;8.25;3.10;;;17.80;90.30;;;;;;5081914;28;20013;-95
2021/09/01 06:52:38;;;;;;;8.88;3.50;;;17.90;90.40;;;;;;5078159;28;20009;-95
2021/09/01 06:55:05;;;;;;;9.48;3.70;;;17.90;90.30;;;;;;5061552;28;20013;-95
2021/09/01 06:57:33;;;;;;;5.95;2.80;;;17.90;90.30;;;;;;5078729;28;20029;-96
2021/09/01 06:59:59;;;;;;;7.57;2.60;;;17.90;90.20;;;;;;5045336;28;20053;-95
2021/09/01 07:02:24;;;;;;;9.13;3.38;;;17.90;90.10;;;;;;5050765;28;20059;-93
2021/09/01 07:04:50;;;;;;;8.32;3.25;;;17.90;90.00;;;;;;5044820;28;20098;-91
2021/09/01 07:07:16;;;;;;;5.47;2.33;;;17.90;90.10;;;;;;5026973;28;20005;-94
2021/09/01 07:09:41;;;;;;;7.38;2.95;;;17.90;90.10;;;;;;5044896;28;20028;-96
2021/09/01 07:12:07;;;;;;;6.50;2.50;;;17.90;90.20;;;;;;5044732;28;20009;-95
2021/09/01 07:14:33;;;;;;;6.45;2.75;;;17.90;90.20;;;;;;5044590;28;20013;-95
2021/09/01 07:17:01;;;;;;;6.10;2.13;;;17.90;90.20;;;;;;5076716;28;20021;-96
2021/09/01 07:19:30;;;;;;;6.30;2.95;;;17.90;90.10;;;;;;5061028;28;20025;-95
2021/09/01 07:21:59;;;;;;;7.30;2.80;;;17.90;90.10;;;;;;5057348;28;20017;-96
2021/09/01 07:24:34;;;;;;;5.63;2.80;;;17.90;90.20;;;;;;5059161;28;20015;-94
2021/09/01 07:27:06;;;;;;;9.45;3.08;;;18.00;90.30;;;;;;5068499;28;20017;-94
2021/09/01 07:29:31;;;;;;;7.72;2.95;;;18.00;90.20;;;;;;5059835;28;20036;-94
2021/09/01 07:31:57;;;;;;;8.40;3.28;;;18.00;90.20;;;;;;5060632;28;20024;-95
2021/09/01 07:34:23;;;;;;;10.52;3.40;;;18.00;90.20;;;;;;5064713;28;20009;-92
2021/09/01 07:36:48;;;;;;;9.38;4.07;;;18.00;90.20;;;;;;5072985;28;20025;-93
2021/09/01 07:39:14;;;;;;;8.48;3.63;;;18.00;90.20;;;;;;5026924;28;20105;-93
2021/09/01 07:41:40;;;;;;;8.43;3.35;;;18.00;90.20;;;;;;5033880;28;20151;-95
2021/09/01 07:44:06;;;;;;;10.30;3.60;;;18.00;90.30;;;;;;5061396;28;20353;-94
2021/09/01 07:46:32;;;;;;;6.93;3.40;;;18.00;90.30;;;;;;5064574;28;20411;-94
2021/09/01 07:49:00;;;;;;;8.68;2.88;;;18.00;90.30;;;;;;5033613;28;20028;-95
2021/09/01 07:51:27;;;;;;;8.27;3.47;;;18.10;90.20;;;;;;5060173;28;20044;-92
2021/09/01 07:53:52;;;;;;;8.35;2.63;;;18.10;90.20;;;;;;5025884;28;20043;-87
2021/09/01 07:56:18;;;;;;;7.05;2.70;;;18.10;90.30;;;;;;5023319;28;20529;-86
2021/09/01 07:58:44;;;;;;;8.07;3.13;;;18.10;90.30;;;;;;5055309;28;20021;-87
2021/09/01 08:01:12;;;;;;;7.72;3.47;;;18.10;90.40;;;;;;5037614;28;20435;-87
2021/09/01 08:03:38;;;;;;;7.18;2.72;;;18.10;90.30;;;;;;5034567;28;20581;-87
2021/09/01 08:06:07;;;;;;;6.72;2.97;;;18.10;90.20;;;;;;5052388;28;20017;-86
2021/09/01 08:08:33;;;;;;;8.32;3.63;;;18.10;90.30;;;;;;5036398;28;20108;-86
2021/09/01 08:10:59;;;;;;;7.13;3.05;;;18.20;90.40;;;;;;5036883;28;20107;-86
2021/09/01 08:13:25;;;;;;;7.75;2.53;;;18.20;90.40;;;;;;5037487;28;20028;-86
2021/09/01 08:15:50;;;;;;;9.25;3.22;;;18.20;90.20;;;;;;5033766;28;20029;-86
2021/09/01 08:18:16;;;;;;;9.23;3.10;;;18.20;90.10;;;;;;5047478;28;20040;-85
2021/09/01 08:20:42;;;;;;;6.75;2.75;;;18.20;90.10;;;;;;5038199;28;20037;-86
2021/09/01 08:23:08;;;;;;;9.23;3.42;;;18.20;90.20;;;;;;5056568;28;20040;-86
2021/09/01 08:25:33;;;;;;;7.57;2.72;;;18.20;90.20;;;;;;5085425;28;20016;-87
2021/09/01 08:27:59;;;;;;;6.05;2.53;;;18.20;90.20;;;;;;5094035;28;20024;-87
2021/09/01 08:30:25;;;;;;;7.53;2.58;;;18.20;90.20;;;;;;5063913;28;20019;-86
2021/09/01 08:32:50;;;;;;;7.22;2.67;;;18.20;90.30;;;;;;5060175;28;20052;-87
2021/09/01 08:35:16;;;;;;;8.30;3.63;;;18.20;90.30;;;;;;5054591;28;20029;-87
2021/09/01 08:37:47;;;;;;;7.57;2.92;;;18.20;90.60;;;;;;5084982;28;20049;-88
2021/09/01 08:40:13;;;;;;;10.20;3.10;;;18.20;90.50;;;;;;5056533;28;20045;-89
2021/09/01 08:42:40;;;;;;;8.38;3.00;;;18.20;90.40;;;;;;5068925;28;20040;-87
2021/09/01 08:45:06;;;;;;;8.50;2.83;;;18.20;90.50;;;;;;5056077;28;20025;-86
2021/09/01 08:47:34;;;;;;;7.72;3.88;;;18.20;90.40;;;;;;5003787;28;20132;-88
2021/09/01 08:50:00;;;;;;;6.18;2.70;;;18.20;90.30;;;;;;5037046;28;20443;-87
2021/09/01 08:52:26;;;;;;;9.50;2.90;;;18.30;90.20;;;;;;5019626;28;20029;-86
2021/09/01 08:54:53;;;;;;;5.60;2.90;;;18.30;90.00;;;;;;5036034;28;20029;-86
2021/09/01 08:57:19;;;;;;;8.88;3.00;;;18.30;90.00;;;;;;5036367;28;20033;-87
2021/09/01 08:59:44;;;;;;;8.13;3.15;;;18.40;90.00;;;;;;5036169;28;20600;-87
2021/09/01 09:02:11;;;;;;;7.97;2.88;;;18.40;90.00;;;;;;5019472;28;20039;-87
2021/09/01 09:04:38;;;;;;;7.45;2.97;;;18.40;90.30;;;;;;5048316;28;20376;-87
2021/09/01 09:07:06;;;;;;;6.82;2.92;;;18.40;90.00;;;;;;5040007;28;20028;-86
2021/09/01 09:09:38;;;;;;;5.55;2.58;;;18.50;90.00;;;;;;5056319;28;20033;-89
2021/09/01 09:12:06;;;;;;;8.27;3.20;;;18.50;89.90;;;;;;5042735;28;20028;-87
2021/09/01 09:14:50;;;;;;;7.78;2.83;;;18.50;89.90;;;;;;5055266;28;20021;-87
2021/09/01 09:17:20;;;;;;;7.20;2.85;;;18.50;90.00;;;;;;5073122;28;20020;-86
2021/09/01 09:19:56;;;;;;;6.90;2.90;;;18.60;90.00;;;;;;5060533;28;20059;-86
2021/09/01 09:22:30;;;;;;;6.63;2.47;;;18.60;90.00;;;;;;5065506;28;20295;-87
2021/09/01 09:25:24;;;;;;;8.20;2.65;;;18.60;89.70;;;;;;5035720;28;20539;-88
2021/09/01 09:27:57;;;;;;;8.13;3.17;;;18.70;89.80;;;;;;5049676;28;20115;-88
2021/09/01 09:30:46;;;;;;;7.25;3.17;;;18.70;90.00;;;;;;5035889;28;20029;-87
2021/09/01 09:33:20;;;;;;;5.85;2.40;;;18.70;90.00;;;;;;5034810;28;20060;-87
2021/09/01 09:36:01;;;;;;;5.90;2.45;;;18.70;89.80;;;;;;5035127;28;20017;-86
2021/09/01 09:38:38;;;;;;;;;;;18.80;90.00;;;;;;5073204;28;20544;-86
2021/09/01 09:41:08;;;;;;;5.72;2.20;;;18.80;89.90;;;;;;5051584;28;19948;-87
2021/09/01 09:43:35;;;;;;;7.85;2.40;;;18.80;89.70;;;;;;5035467;28;20492;-88
2021/09/01 09:46:07;;;;;;;5.60;2.22;;;18.80;89.40;;;;;;5018075;28;20039;-88
2021/09/01 09:48:35;;;;;;;5.28;2.13;;;18.80;89.50;;;;;;5035009;28;20100;-88
2021/09/01 09:51:03;;;;;;;6.10;2.58;;;18.80;89.30;;;;;;5038349;28;20473;-89
2021/09/01 09:53:37;;;;;;;5.85;1.88;;;18.90;89.20;;;;;;5047565;28;20042;-88
2021/09/01 09:56:19;;;;;;;6.68;2.65;;;18.90;89.00;;;;;;5037945;28;20029;-88
2021/09/01 09:58:48;;;;;;;6.63;2.85;;;19.00;89.20;;;;;;5055276;28;20017;-86
2021/09/01 10:01:16;;;;;;;6.47;2.50;;;19.00;89.40;;;;;;5042361;28;20515;-87
2021/09/01 10:03:42;;;;;;;7.38;2.45;;;19.00;89.10;;;;;;5037459;28;20029;-88
2021/09/01 10:06:16;;;;;;;6.22;2.25;;;19.00;88.90;;;;;;5046757;28;20051;-87
2021/09/01 10:08:43;;;;;;;6.90;2.42;;;19.10;88.60;;;;;;5058317;28;20029;-86
2021/09/01 10:11:11;;;;;;;6.55;2.65;;;19.10;88.30;;;;;;5039409;28;20489;-87
2021/09/01 10:13:39;;;;;;;8.07;2.70;;;19.10;88.40;;;;;;5043717;28;20483;-85
2021/09/01 10:16:14;;;;;;;6.22;2.55;;;19.10;88.10;;;;;;5037906;28;20025;-87
2021/09/01 10:18:41;;;;;;;7.38;2.78;;;19.10;88.10;;;;;;5040953;28;20021;-87
2021/09/01 10:21:07;;;;;;;5.80;2.58;;;19.20;88.10;;;;;;5067365;28;20036;-88
2021/09/01 10:23:43;;;;;;;5.75;2.45;;;19.20;88.30;;;;;;5051720;28;20036;-86
2021/09/01 10:26:33;;;;;;;6.35;2.38;;;19.20;88.50;;;;;;5038215;28;20599;-87
2021/09/01 10:29:02;;;;;;;8.23;2.90;;;19.30;88.30;;;;;;5054814;28;20037;-86
2021/09/01 10:31:30;;;;;;;5.57;2.22;;;19.30;88.10;;;;;;5056734;28;20127;-87
2021/09/01 10:34:01;;;;;;;5.68;2.47;;;19.30;88.10;;;;;;5040693;28;20547;-87
2021/09/01 10:36:27;;;;;;;7.10;2.58;;;19.40;88.30;;;;;;5037649;28;20032;-87
2021/09/01 10:39:08;;;;;;;5.40;2.33;;;19.40;88.30;;;;;;5069454;28;20056;-87
2021/09/01 10:41:34;;;;;;;6.75;2.67;;;19.50;88.10;;;;;;5044094;28;20520;-86
2021/09/01 10:44:12;;;;;;;6.75;2.75;;;19.50;87.70;;;;;;5040879;28;20071;-87
2021/09/01 10:46:50;;;;;;;8.80;2.33;;;19.50;87.70;;;;;;5023650;28;20499;-87
2021/09/01 10:49:17;;;;;;;10.43;3.00;;;19.50;87.80;;;;;;5056805;28;20543;-87
2021/09/01 10:52:03;;;;;;;8.98;2.60;;;19.60;87.80;;;;;;5036752;28;20028;-87
2021/09/01 10:54:34;;;;;;;8.73;2.80;;;19.60;87.80;;;;;;5019952;28;20021;-87
2021/09/01 10:57:03;;;;;;;5.85;2.58;;;19.60;87.90;;;;;;5053528;28;20021;-87
2021/09/01 10:59:39;;;;;;;6.88;2.92;;;19.70;87.60;;;;;;5037067;28;20134;-87
2021/09/01 11:02:16;;;;;;;7.68;3.33;;;19.70;87.80;;;;;;5037336;28;20029;-87
2021/09/01 11:04:58;;;;;;;6.68;3.00;;;19.70;87.70;;;;;;5005171;28;20024;-87
2021/09/01 11:07:26;;;;;;;8.02;2.88;;;19.70;87.90;;;;;;5036996;28;20075;-87
2021/09/01 11:10:00;;;;;;;7.18;2.72;;;19.80;88.00;;;;;;5045429;28;20025;-87
2021/09/01 11:12:30;;;;;;;6.88;2.72;;;19.70;87.80;;;;;;5041914;28;20131;-88
2021/09/01 11:14:56;;;;;;;6.90;2.72;;;19.80;87.90;;;;;;5035220;28;20028;-89
2021/09/01 11:17:29;;;;;;;6.30;2.92;;;19.80;88.00;;;;;;5019702;28;20047;-88
2021/09/01 11:20:00;;;;;;;7.50;2.78;;;19.80;87.80;;;;;;5042701;28;20025;-87
2021/09/01 11:22:31;;;;;;;8.32;2.90;;;19.80;87.70;;;;;;5042462;28;20029;-87
2021/09/01 11:25:03;;;;;;;7.75;2.90;;;19.90;87.60;;;;;;5056105;28;20028;-86
2021/09/01 11:27:30;;;;;;;8.13;2.50;;;19.90;87.70;;;;;;5050800;28;20036;-87
2021/09/01 11:30:01;;;;;;;7.15;2.80;;;19.90;87.60;;;;;;5066076;28;20033;-88
2021/09/01 11:32:27;;;;;;;;;;;19.90;87.40;;;;;;5023940;28;20386;-87
2021/09/01 11:34:53;;;;;;;5.63;2.60;;;19.90;87.10;;;;;;5033095;28;19916;-87
2021/09/01 11:37:22;;;;;;;6.97;2.67;;;19.90;87.10;;;;;;5047815;28;20060;-88
2021/09/01 11:39:50;;;;;;;7.65;2.90;;;19.90;87.40;;;;;;5061947;28;20032;-87
2021/09/01 11:42:16;;;;;;;9.23;2.70;;;20.00;87.40;;;;;;5057886;28;20400;-87
2021/09/01 11:44:42;;;;;;;7.13;3.10;;;20.00;87.20;;;;;;5053821;28;20468;-88
2021/09/01 11:47:15;;;;;;;6.13;2.75;;;20.00;87.40;;;;;;5053529;28;20096;-88
2021/09/01 11:49:41;;;;;;;8.98;3.20;;;20.10;87.50;;;;;;5038966;28;20025;-87
2021/09/01 11:52:07;;;;;;;5.43;2.70;;;20.10;87.10;;;;;;5057231;28;20036;-90
2021/09/01 11:54:37;;;;;;;7.07;2.42;;;20.10;87.10;;;;;;5041023;28;20025;-91
2021/09/01 11:57:03;;;;;;;6.13;2.25;;;20.20;87.10;;;;;;5025653;28;20091;-91
2021/09/01 11:59:28;;;;;;;5.97;2.58;;;20.20;86.60;;;;;;5037335;28;20025;-90
2021/09/01 12:01:58;;;;;;;6.72;2.50;;;20.20;86.40;;;;;;5037188;28;20036;-90
2021/09/01 12:04:24;;;;;;;5.40;2.42;;;20.20;86.50;;;;;;5037360;28;20025;-90
2021/09/01 12:06:57;;;;;;;7.55;2.60;;;20.30;86.30;;;;;;5054282;28;20043;-90
2021/09/01 12:09:26;;;;;;;5.60;2.47;;;20.30;86.10;;;;;;5050787;28;20108;-90
2021/09/01 12:11:53;;;;;;;5.93;2.50;;;20.30;85.80;;;;;;5051748;28;20575;-90
2021/09/01 12:14:23;;;;;;;7.65;2.22;;;20.30;85.60;;;;;;5078647;28;20024;-89
2021/09/01 12:16:50;;;;;;;5.88;2.33;;;20.30;85.40;;;;;;5071173;28;20062;-89
2021/09/01 12:19:16;;;;;;;6.60;2.38;;;20.30;85.30;;;;;;5070578;28;20442;-89
2021/09/01 12:21:55;;;;;;;5.50;2.63;;;20.40;85.40;;;;;;5068756;28;20017;-89
2021/09/01 12:24:33;;;;;;;6.63;2.95;;;20.30;85.70;;;;;;5013927;28;20032;-90
2021/09/01 12:27:09;;;;;;;6.68;2.85;;;20.30;85.90;;;;;;5038218;28;20036;-90
2021/09/01 12:29:40;;;;;;;6.30;2.38;;;20.40;86.20;;;;;;5054075;28;20024;-89
2021/09/01 12:32:09;;;;;;;6.22;2.83;;;20.40;86.40;;;;;;5037440;28;20029;-89
2021/09/01 12:34:36;;;;;;;6.60;2.70;;;20.40;86.30;;;;;;5037258;28;20032;-91
2021/09/01 12:37:05;;;;;;;6.78;2.78;;;20.40;86.40;;;;;;5038414;28;20041;-89
2021/09/01 12:39:49;;;;;;;7.82;3.28;;;20.40;86.20;;;;;;5053693;28;20029;-91
2021/09/01 12:42:25;;;;;;;9.02;2.70;;;20.40;86.60;;;;;;5044265;28;20037;-92
2021/09/01 12:45:06;;;;;;;7.03;2.85;;;20.40;86.70;;;;;;5056838;28;20032;-90
2021/09/01 12:47:32;;;;;;;;;;;20.40;86.90;;;;;;5024985;28;20021;-90
2021/09/01 12:50:00;;;;;;;6.03;2.88;;;20.50;87.20;;;;;;5055454;28;19911;-91